Time;durP1;ratioP1;P1;durP2;ratioP2;P2;SDS_P1;SDS_P2;PMS_P1;PMS_P2;Temp;Humidity;BMP_temperature;BMP_pressure;BME280_temperature;BME280_humidity;BME280_pressure;Samples;Min_cycle;Max_cycle;Signal;HPM_P1;HPM_P2
2023/06/24 00:02:23;;;;;;;;;;;;;;;;;;5031728;28;19932;-67
2023/06/24 00:04:51;;;;;;;;;;;;;;;;;;5030988;28;19925;-66
2023/06/24 00:07:21;;;;;;;;;;;;;;;;;;5031945;28;19929;-67
2023/06/24 00:09:48;;;;;;;;;;;;;;;;;;5030906;28;19979;-67
2023/06/24 00:12:18;;;;;;;;;;;;;;;;;;5031848;28;20070;-66
2023/06/24 00:14:45;;;;;;;;;;;;;;;;;;5031520;28;19951;-66
2023/06/24 00:17:11;;;;;;;;;;;;;;;;;;5031360;28;20032;-67
2023/06/24 00:19:38;;;;;;;;;;;;;;;;;;5030342;28;20024;-66
2023/06/24 00:22:06;;;;;;;;;;;;;;;;;;5031737;28;19936;-67
2023/06/24 00:24:33;;;;;;;;;;;;;;;;;;5031283;28;20400;-67
2023/06/24 00:26:59;;;;;;;;;;;;;;;;;;5031154;28;20310;-67
2023/06/24 00:29:25;;;;;;;;;;;;;;;;;;5031714;28;20016;-66
2023/06/24 00:31:52;;;;;;;;;;;;;;;;;;5030557;28;19925;-67
2023/06/24 00:34:19;;;;;;;;;;;;;;;;;;5031554;28;19925;-66
2023/06/24 00:36:46;;;;;;;;;;;;;;;;;;5030830;28;19989;-67
2023/06/24 00:39:14;;;;;;;;;;;;;;;;;;5032119;28;20000;-67
2023/06/24 00:41:40;;;;;;;;;;;;;;;;;;5030432;28;20009;-66
2023/06/24 00:44:07;;;;;;;;;;;;;;;;;;5030898;28;19931;-67
2023/06/24 00:46:34;;;;;;;;;;;;;;;;;;5030381;28;19925;-67
2023/06/24 00:49:01;;;;;;;;;;;;;;;;;;5031365;28;19929;-67
2023/06/24 00:51:30;;;;;;;;;;;;;;;;;;5030277;28;19925;-66
2023/06/24 00:53:56;;;;;;;;;;;;;;;;;;5031297;28;20361;-66
2023/06/24 00:56:26;;;;;;;;;;;;;;;;;;5030859;28;20260;-66
2023/06/24 00:58:53;;;;;;;;;;;;;;;;;;5031059;28;20008;-66
2023/06/24 01:01:20;;;;;;;;;;;;;;;;;;5030901;28;19954;-66
2023/06/24 01:03:46;;;;;;;;;;;;;;;;;;5030975;28;19932;-67
2023/06/24 01:06:14;;;;;;;;;;;;;;;;;;5031164;28;19931;-67
2023/06/24 01:08:40;;;;;;;;;;;;;;;;;;5030893;28;20331;-67
2023/06/24 01:11:07;;;;;;;;;;;;;;;;;;5030819;28;19936;-67
2023/06/24 01:13:34;;;;;;;;;;;;;;;;;;5030197;28;20378;-67
2023/06/24 01:16:02;;;;;;;;;;;;;;;;;;5031508;28;20441;-67
2023/06/24 01:18:31;;;;;;;;;;;;;;;;;;5030673;28;19925;-68
2023/06/24 01:21:02;;;;;;;;;;;;;;;;;;5030793;28;19925;-66
2023/06/24 01:23:43;;;;;;;;;;;;;;;;;;5030481;28;19980;-67
2023/06/24 01:26:21;;;;;;;;;;;;;;;;;;5030762;28;19987;-67
2023/06/24 01:29:02;;;;;;;;;;;;;;;;;;5030687;28;19925;-67
2023/06/24 01:31:35;;;;;;;;;;;;;;;;;;5030790;28;19932;-67
2023/06/24 01:34:06;;;;;;;;;;;;;;;;;;5030064;28;19933;-67
2023/06/24 01:36:34;;;;;;;;;;;;;;;;;;5030710;28;19932;-67
2023/06/24 01:39:02;;;;;;;;;;;;;;;;;;5030319;28;19931;-67
2023/06/24 01:41:32;;;;;;;;;;;;;;;;;;5030892;28;20298;-67
2023/06/24 01:43:59;;;;;;;;;;;;;;;;;;5031175;28;19932;-67
2023/06/24 01:46:26;;;;;;;;;;;;;;;;;;5033035;28;20398;-67
2023/06/24 01:48:55;;;;;;;;;;;;;;;;;;5034501;28;19925;-66
2023/06/24 01:51:23;;;;;;;;;;;;;;;;;;5033810;28;19925;-67
2023/06/24 01:53:50;;;;;;;;;;;;;;;;;;5034578;28;19948;-67
2023/06/24 01:56:17;;;;;;;;;;;;;;;;;;5034255;28;20048;-67
2023/06/24 01:58:45;;;;;;;;;;;;;;;;;;5034053;28;19925;-67
2023/06/24 02:01:13;;;;;;;;;;;;;;;;;;5033181;28;19929;-67
2023/06/24 02:03:40;;;;;;;;;;;;;;;;;;5033633;28;20427;-66
2023/06/24 02:06:09;;;;;;;;;;;;;;;;;;5033483;28;19929;-67
2023/06/24 02:08:36;;;;;;;;;;;;;;;;;;5034168;28;19970;-67
2023/06/24 02:11:03;;;;;;;;;;;;;;;;;;5033024;28;19925;-67
2023/06/24 02:13:31;;;;;;;;;;;;;;;;;;5033924;28;19964;-66
2023/06/24 02:15:58;;;;;;;;;;;;;;;;;;5033594;28;19925;-67
2023/06/24 02:18:25;;;;;;;;;;;;;;;;;;5033612;28;20023;-67
2023/06/24 02:20:52;;;;;;;;;;;;;;;;;;5033608;28;19932;-67
2023/06/24 02:23:20;;;;;;;;;;;;;;;;;;5033752;28;20331;-66
2023/06/24 02:25:46;;;;;;;;;;;;;;;;;;5034169;28;19928;-67
2023/06/24 02:28:13;;;;;;;;;;;;;;;;;;5032961;28;19932;-68
2023/06/24 02:30:40;;;;;;;;;;;;;;;;;;5032286;28;20321;-67
2023/06/24 02:33:06;;;;;;;;;;;;;;;;;;5032748;28;20298;-67
2023/06/24 02:35:33;;;;;;;;;;;;;;;;;;5033541;28;20021;-67
2023/06/24 02:37:59;;;;;;;;;;;;;;;;;;5033437;28;20012;-67
2023/06/24 02:40:28;;;;;;;;;;;;;;;;;;5033251;28;20422;-68
2023/06/24 02:42:54;;;;;;;;;;;;;;;;;;5033237;28;19980;-66
2023/06/24 02:45:21;;;;;;;;;;;;;;;;;;5033097;28;19947;-67
2023/06/24 02:47:48;;;;;;;;;;;;;;;;;;5033475;28;19925;-67
2023/06/24 02:50:15;;;;;;;;;;;;;;;;;;5032059;28;20004;-67
2023/06/24 02:52:41;;;;;;;;;;;;;;;;;;5032971;28;20301;-67
2023/06/24 02:55:08;;;;;;;;;;;;;;;;;;5032590;28;19931;-67
2023/06/24 02:57:37;;;;;;;;;;;;;;;;;;5031774;28;20016;-67
2023/06/24 03:00:08;;;;;;;;;;;;;;;;;;5032214;28;20421;-67
2023/06/24 03:02:35;;;;;;;;;;;;;;;;;;5032915;28;19932;-67
2023/06/24 03:05:02;;;;;;;;;;;;;;;;;;5032492;28;19931;-67
2023/06/24 03:07:30;;;;;;;;;;;;;;;;;;5033027;28;20305;-68
2023/06/24 03:09:57;;;;;;;;;;;;;;;;;;5032023;28;19929;-67
2023/06/24 03:12:24;;;;;;;;;;;;;;;;;;5032632;28;19972;-67
2023/06/24 03:14:52;;;;;;;;;;;;;;;;;;5032609;28;20277;-68
2023/06/24 03:17:18;;;;;;;;;;;;;;;;;;5032514;28;19999;-67
2023/06/24 03:19:44;;;;;;;;;;;;;;;;;;5032694;28;19931;-67
2023/06/24 03:22:11;;;;;;;;;;;;;;;;;;5032394;28;19955;-68
2023/06/24 03:24:37;;;;;;;;;;;;;;;;;;5032690;28;19932;-67
2023/06/24 03:27:04;;;;;;;;;;;;;;;;;;5032189;28;20015;-67
2023/06/24 03:29:30;;;;;;;;;;;;;;;;;;5032842;28;19926;-67
2023/06/24 03:31:58;;;;;;;;;;;;;;;;;;5044011;22;19941;-70
2023/06/24 03:34:26;;;;;;;;;;;;;;;;;;5013005;28;19932;-70
2023/06/24 03:36:54;;;;;;;;;;;;;;;;;;5012715;28;20363;-71
2023/06/24 03:39:20;;;;;;;;;;;;;;;;;;5012912;28;19925;-70
2023/06/24 03:41:47;;;;;;;;;;;;;;;;;;5012423;28;20305;-70
2023/06/24 03:44:14;;;;;;;;;;;;;;;;;;5012512;28;19926;-68
2023/06/24 03:46:40;;;;;;;;;;;;;;;;;;5012068;28;19926;-69
2023/06/24 03:49:08;;;;;;;;;;;;;;;;;;5012716;28;20389;-70
2023/06/24 03:51:34;;;;;;;;;;;;;;;;;;5012279;28;19925;-69
2023/06/24 03:54:01;;;;;;;;;;;;;;;;;;5012063;28;20151;-70
2023/06/24 03:56:27;;;;;;;;;;;;;;;;;;5012334;28;19925;-69
2023/06/24 03:58:54;;;;;;;;;;;;;;;;;;5011921;28;20007;-70
2023/06/24 04:01:20;;;;;;;;;;;;;;;;;;5012130;28;19932;-69
2023/06/24 04:03:46;;;;;;;;;;;;;;;;;;5012008;28;20347;-69
2023/06/24 04:06:14;;;;;;;;;;;;;;;;;;5011936;28;19926;-69
2023/06/24 04:08:43;;;;;;;;;;;;;;;;;;5011430;28;19932;-70
2023/06/24 04:11:09;;;;;;;;;;;;;;;;;;5012132;28;19980;-68
2023/06/24 04:13:36;;;;;;;;;;;;;;;;;;5011839;28;19929;-69
2023/06/24 04:16:02;;;;;;;;;;;;;;;;;;5012261;28;19932;-69
2023/06/24 04:18:29;;;;;;;;;;;;;;;;;;5011841;28;20134;-69
2023/06/24 04:20:56;;;;;;;;;;;;;;;;;;5011646;28;19926;-69
2023/06/24 04:23:24;;;;;;;;;;;;;;;;;;5011825;28;19926;-70
2023/06/24 04:25:50;;;;;;;;;;;;;;;;;;5011640;28;19925;-70
2023/06/24 04:28:16;;;;;;;;;;;;;;;;;;5012105;28;20347;-70
2023/06/24 04:30:43;;;;;;;;;;;;;;;;;;5011975;28;19925;-69
2023/06/24 04:33:09;;;;;;;;;;;;;;;;;;5011686;28;20021;-70
2023/06/24 04:35:36;;;;;;;;;;;;;;;;;;5011668;28;19932;-69
2023/06/24 04:38:02;;;;;;;;;;;;;;;;;;5011989;28;20399;-69
2023/06/24 04:40:31;;;;;;;;;;;;;;;;;;5011234;28;20023;-70
2023/06/24 04:42:57;;;;;;;;;;;;;;;;;;5011993;28;19948;-70
2023/06/24 04:45:24;;;;;;;;;;;;;;;;;;5010914;28;19925;-69
2023/06/24 04:47:50;;;;;;;;;;;;;;;;;;5011688;28;19951;-70
2023/06/24 04:50:16;;;;;;;;;;;;;;;;;;5011357;28;19932;-69
2023/06/24 04:52:44;;;;;;;;;;;;;;;;;;5011708;28;19925;-70
2023/06/24 04:55:11;;;;;;;;;;;;;;;;;;5011419;28;19980;-70
2023/06/24 04:57:38;;;;;;;;;;;;;;;;;;5011145;28;20302;-69
2023/06/24 05:00:06;;;;;;;;;;;;;;;;;;5011377;28;20447;-71
2023/06/24 05:02:32;;;;;;;;;;;;;;;;;;5011509;28;19932;-70
2023/06/24 05:04:59;;;;;;;;;;;;;;;;;;5013023;28;19969;-70
2023/06/24 05:07:25;;;;;;;;;;;;;;;;;;5012040;28;19932;-70
2023/06/24 05:09:52;;;;;;;;;;;;;;;;;;5012850;28;20348;-70
2023/06/24 05:12:18;;;;;;;;;;;;;;;;;;5011780;28;20035;-68
2023/06/24 05:14:50;;;;;;;;;;;;;;;;;;5011783;28;20295;-70
2023/06/24 05:17:16;;;;;;;;;;;;;;;;;;5011359;28;20008;-70
2023/06/24 05:19:42;;;;;;;;;;;;;;;;;;5011779;28;20017;-68
2023/06/24 05:22:10;;;;;;;;;;;;;;;;;;5015350;28;19932;-70
2023/06/24 05:24:36;;;;;;;;;;;;;;;;;;5015424;28;19932;-70
2023/06/24 05:27:05;;;;;;;;;;;;;;;;;;5015496;28;20351;-70
2023/06/24 05:29:31;;;;;;;;;;;;;;;;;;5014837;28;20329;-70
2023/06/24 05:31:59;;;;;;;;;;;;;;;;;;5015289;28;19932;-70
2023/06/24 05:34:26;;;;;;;;;;;;;;;;;;5014854;28;19929;-70
2023/06/24 05:36:52;;;;;;;;;;;;;;;;;;5015461;28;19925;-70
2023/06/24 05:39:18;;;;;;;;;;;;;;;;;;5014153;28;20019;-70
2023/06/24 05:41:45;;;;;;;;;;;;;;;;;;5015544;28;20371;-70
2023/06/24 05:44:11;;;;;;;;;;;;;;;;;;5014949;28;20016;-68
2023/06/24 05:46:38;;;;;;;;;;;;;;;;;;5015016;28;20289;-69
2023/06/24 05:49:05;;;;;;;;;;;;;;;;;;5014637;28;19936;-69
2023/06/24 05:51:32;;;;;;;;;;;;;;;;;;5015163;28;19925;-69
2023/06/24 05:53:58;;;;;;;;;;;;;;;;;;5014911;28;19932;-70
2023/06/24 05:56:25;;;;;;;;;;;;;;;;;;5014334;28;20358;-70
2023/06/24 05:58:52;;;;;;;;;;;;;;;;;;5015176;28;20302;-69
2023/06/24 06:01:18;;;;;;;;;;;;;;;;;;5014142;28;20017;-70
2023/06/24 06:03:44;;;;;;;;;;;;;;;;;;5014908;28;19926;-70
2023/06/24 06:06:12;;;;;;;;;;;;;;;;;;5014195;28;19956;-70
2023/06/24 06:08:38;;;;;;;;;;;;;;;;;;5014737;28;20379;-70
2023/06/24 06:11:05;;;;;;;;;;;;;;;;;;5014300;28;20304;-70
2023/06/24 06:13:31;;;;;;;;;;;;;;;;;;5014499;28;19929;-69
2023/06/24 06:15:58;;;;;;;;;;;;;;;;;;5014235;28;19999;-70
2023/06/24 06:18:24;;;;;;;;;;;;;;;;;;5014196;28;19926;-70
2023/06/24 06:20:51;;;;;;;;;;;;;;;;;;5013877;28;19929;-70
2023/06/24 06:23:19;;;;;;;;;;;;;;;;;;5014555;28;19932;-70
2023/06/24 06:25:45;;;;;;;;;;;;;;;;;;5014997;28;20052;-70
2023/06/24 06:28:12;;;;;;;;;;;;;;;;;;5014425;28;19926;-70
2023/06/24 06:30:39;;;;;;;;;;;;;;;;;;5014981;28;19969;-70
2023/06/24 06:33:05;;;;;;;;;;;;;;;;;;5014209;28;20013;-70
2023/06/24 06:35:32;;;;;;;;;;;;;;;;;;5014235;28;19925;-69
2023/06/24 06:37:58;;;;;;;;;;;;;;;;;;5013361;28;20283;-69
2023/06/24 06:40:28;;;;;;;;;;;;;;;;;;5013339;28;20008;-69
2023/06/24 06:42:54;;;;;;;;;;;;;;;;;;5013216;28;19933;-69
2023/06/24 06:45:21;;;;;;;;;;;;;;;;;;5013967;28;20501;-69
2023/06/24 06:47:47;;;;;;;;;;;;;;;;;;5013483;28;19932;-69
2023/06/24 06:50:14;;;;;;;;;;;;;;;;;;5013930;28;19926;-70
2023/06/24 06:52:40;;;;;;;;;;;;;;;;;;5013320;28;19932;-69
2023/06/24 06:55:07;;;;;;;;;;;;;;;;;;5013585;28;20363;-69
2023/06/24 06:57:34;;;;;;;;;;;;;;;;;;5013859;28;19947;-69
2023/06/24 07:00:01;;;;;;;;;;;;;;;;;;5012822;28;19932;-70
2023/06/24 07:02:27;;;;;;;;;;;;;;;;;;5013532;28;20016;-69
2023/06/24 07:04:53;;;;;;;;;;;;;;;;;;5012578;28;19932;-69
2023/06/24 07:07:20;;;;;;;;;;;;;;;;;;5013455;28;19931;-69
2023/06/24 07:09:47;;;;;;;;;;;;;;;;;;5011929;28;20447;-68
2023/06/24 07:12:14;;;;;;;;;;;;;;;;;;5012960;28;19925;-69
2023/06/24 07:14:42;;;;;;;;;;;;;;;;;;5012576;28;20442;-69
2023/06/24 07:17:08;;;;;;;;;;;;;;;;;;5012756;28;19925;-69
2023/06/24 07:19:34;;;;;;;;;;;;;;;;;;5012345;28;19947;-68
2023/06/24 07:22:01;;;;;;;;;;;;;;;;;;5012649;28;20013;-69
2023/06/24 07:24:27;;;;;;;;;;;;;;;;;;5012153;28;19932;-69
2023/06/24 07:26:54;;;;;;;;;;;;;;;;;;5012501;28;20016;-69
2023/06/24 07:29:21;;;;;;;;;;;;;;;;;;5012561;28;20464;-68
2023/06/24 07:31:49;;;;;;;;;;;;;;;;;;5011479;28;19972;-69
2023/06/24 07:34:15;;;;;;;;;;;;;;;;;;5012473;28;19925;-68
2023/06/24 07:36:42;;;;;;;;;;;;;;;;;;5011740;28;20008;-69
2023/06/24 07:39:08;;;;;;;;;;;;;;;;;;5012771;28;20274;-69
2023/06/24 07:41:35;;;;;;;;;;;;;;;;;;5011646;28;19935;-69
2023/06/24 07:44:01;;;;;;;;;;;;;;;;;;5011700;28;19937;-69
2023/06/24 07:46:28;;;;;;;;;;;;;;;;;;5011663;28;19932;-69
2023/06/24 07:48:55;;;;;;;;;;;;;;;;;;5012251;28;20024;-69
2023/06/24 07:51:22;;;;;;;;;;;;;;;;;;5011203;28;19925;-69
2023/06/24 07:53:48;;;;;;;;;;;;;;;;;;5011976;28;20387;-69
2023/06/24 07:56:15;;;;;;;;;;;;;;;;;;5012334;28;20560;-69
2023/06/24 07:58:41;;;;;;;;;;;;;;;;;;5011638;28;19925;-69
2023/06/24 08:01:08;;;;;;;;;;;;;;;;;;5011793;28;19971;-69
2023/06/24 08:03:36;;;;;;;;;;;;;;;;;;5011271;28;19979;-69
2023/06/24 08:06:04;;;;;;;;;;;;;;;;;;5011706;28;19930;-69
2023/06/24 08:08:31;;;;;;;;;;;;;;;;;;5011171;28;19926;-69
2023/06/24 08:10:57;;;;;;;;;;;;;;;;;;5011631;28;20466;-69
2023/06/24 08:13:23;;;;;;;;;;;;;;;;;;5011496;28;19935;-69
2023/06/24 08:15:50;;;;;;;;;;;;;;;;;;5011828;28;20027;-69
2023/06/24 08:18:16;;;;;;;;;;;;;;;;;;5011121;28;19987;-69
2023/06/24 08:20:43;;;;;;;;;;;;;;;;;;5010886;28;20020;-69
2023/06/24 08:23:10;;;;;;;;;;;;;;;;;;5010904;28;20024;-69
2023/06/24 08:25:37;;;;;;;;;;;;;;;;;;5011521;28;19932;-69
2023/06/24 08:28:03;;;;;;;;;;;;;;;;;;5011301;28;20028;-68
2023/06/24 08:30:30;;;;;;;;;;;;;;;;;;5010797;28;20384;-69
2023/06/24 08:32:56;;;;;;;;;;;;;;;;;;5011273;28;19941;-69
2023/06/24 08:35:23;;;;;;;;;;;;;;;;;;5010597;28;20290;-69
2023/06/24 08:37:49;;;;;;;;;;;;;;;;;;5011196;28;19932;-69
2023/06/24 08:40:18;;;;;;;;;;;;;;;;;;5010310;28;19969;-69
2023/06/24 08:42:44;;;;;;;;;;;;;;;;;;5011439;28;19951;-69
2023/06/24 08:45:11;;;;;;;;;;;;;;;;;;5010771;28;20418;-69
2023/06/24 08:47:37;;;;;;;;;;;;;;;;;;5011115;28;20295;-68
2023/06/24 08:50:05;;;;;;;;;;;;;;;;;;5010185;28;19934;-69
2023/06/24 08:52:32;;;;;;;;;;;;;;;;;;5011418;28;19947;-69
2023/06/24 08:55:00;;;;;;;;;;;;;;;;;;5010660;28;19926;-69
2023/06/24 08:57:27;;;;;;;;;;;;;;;;;;5011135;28;19932;-69
2023/06/24 08:59:54;;;;;;;;;;;;;;;;;;5010730;28;19930;-69
2023/06/24 09:02:20;;;;;;;;;;;;;;;;;;5010509;28;20454;-69
2023/06/24 09:04:47;;;;;;;;;;;;;;;;;;5011406;28;20190;-69
2023/06/24 09:07:13;;;;;;;;;;;;;;;;;;5010485;28;20351;-69
2023/06/24 09:09:43;;;;;;;;;;;;;;;;;;5010619;28;20026;-69
2023/06/24 09:12:11;;;;;;;;;;;;;;;;;;5010334;28;19926;-69
2023/06/24 09:14:40;;;;;;;;;;;;;;;;;;5010747;28;19925;-69
2023/06/24 09:17:09;;;;;;;;;;;;;;;;;;5010114;28;19932;-69
2023/06/24 09:19:36;;;;;;;;;;;;;;;;;;5010571;28;19925;-69
2023/06/24 09:22:03;;;;;;;;;;;;;;;;;;5010321;28;19926;-69
2023/06/24 09:24:30;;;;;;;;;;;;;;;;;;5010706;28;20253;-69
2023/06/24 09:26:58;;;;;;;;;;;;;;;;;;5010123;28;19936;-69
2023/06/24 09:29:26;;;;;;;;;;;;;;;;;;5010500;28;19932;-69
2023/06/24 09:34:29;;;;;;;;;;;;;;;;;;5029853;28;19925;-65
2023/06/24 09:36:56;;;;;;;;;;;;;;;;;;5030766;28;20023;-67
2023/06/24 09:39:28;;;;;;;;;;;;;;;;;;5030133;28;19929;-67
2023/06/24 09:41:54;;;;;;;;;;;;;;;;;;5030433;28;19948;-68
2023/06/24 09:44:21;;;;;;;;;;;;;;;;;;5030459;28;19925;-68
2023/06/24 09:46:47;;;;;;;;;;;;;;;;;;5030294;28;19983;-67
2023/06/24 09:49:14;;;;;;;;;;;;;;;;;;5030243;28;19947;-67
2023/06/24 09:51:43;;;;;;;;;;;;;;;;;;5030100;28;19932;-67
2023/06/24 09:54:12;;;;;;;;;;;;;;;;;;5030259;28;19932;-67
2023/06/24 09:56:40;;;;;;;;;;;;;;;;;;5030720;28;19964;-68
2023/06/24 09:59:07;;;;;;;;;;;;;;;;;;5030161;28;19926;-68
2023/06/24 10:01:36;;;;;;;;;;;;;;;;;;5029971;28;19935;-67
2023/06/24 10:04:03;;;;;;;;;;;;;;;;;;5030228;28;19968;-67
2023/06/24 10:06:30;;;;;;;;;;;;;;;;;;5031629;28;19981;-67
2023/06/24 10:08:58;;;;;;;;;;;;;;;;;;5033599;28;19972;-67
2023/06/24 10:11:27;;;;;;;;;;;;;;;;;;5033533;28;19929;-67
2023/06/24 10:13:54;;;;;;;;;;;;;;;;;;5033827;28;19933;-67
2023/06/24 10:16:21;;;;;;;;;;;;;;;;;;5033550;28;20371;-67
2023/06/24 10:18:48;;;;;;;;;;;;;;;;;;5033848;28;19925;-67
2023/06/24 10:21:16;;;;;;;;;;;;;;;;;;5033490;28;19971;-67
2023/06/24 10:23:43;;;;;;;;;;;;;;;;;;5033559;28;19931;-67
2023/06/24 10:26:12;;;;;;;;;;;;;;;;;;5033380;28;19925;-67
2023/06/24 10:28:57;;;;;;;;;;;;;;;;;;5034084;28;19925;-67
2023/06/24 10:31:50;;;;;;;;;;;;;;;;;;5032459;28;20038;-65
2023/06/24 10:34:21;;;;;;;;;;;;;;;;;;5032540;28;19935;-67
2023/06/24 10:36:54;;;;;;;;;;;;;;;;;;5032094;28;19925;-65
2023/06/24 10:39:35;;;;;;;;;;;;;;;;;;5032609;28;20413;-67
2023/06/24 10:42:16;;;;;;;;;;;;;;;;;;5031761;28;19929;-66
2023/06/24 10:44:47;;;;;;;;;;;;;;;;;;5032227;28;19935;-67
2023/06/24 10:47:13;;;;;;;;;;;;;;;;;;5031847;28;19929;-67
2023/06/24 10:49:40;;;;;;;;;;;;;;;;;;5032122;28;20276;-67
2023/06/24 10:52:08;;;;;;;;;;;;;;;;;;5031720;28;19925;-67
2023/06/24 10:54:35;;;;;;;;;;;;;;;;;;5032174;28;19932;-67
2023/06/24 10:57:01;;;;;;;;;;;;;;;;;;5031266;28;19925;-67
2023/06/24 10:59:27;;;;;;;;;;;;;;;;;;5032114;28;19932;-67
2023/06/24 11:01:55;;;;;;;;;;;;;;;;;;5031191;28;19925;-67
2023/06/24 11:04:22;;;;;;;;;;;;;;;;;;5032071;28;20378;-67
2023/06/24 11:06:57;;;;;;;;;;;;;;;;;;5031900;28;19925;-67
2023/06/24 11:09:23;;;;;;;;;;;;;;;;;;5031919;28;19929;-67
2023/06/24 11:11:50;;;;;;;;;;;;;;;;;;5031959;28;19929;-67
2023/06/24 11:14:16;;;;;;;;;;;;;;;;;;5031964;28;19925;-68
2023/06/24 11:16:43;;;;;;;;;;;;;;;;;;5032129;28;20023;-66
2023/06/24 11:19:11;;;;;;;;;;;;;;;;;;5030728;28;19979;-67
2023/06/24 11:21:37;;;;;;;;;;;;;;;;;;5031161;28;20378;-67
2023/06/24 11:24:04;;;;;;;;;;;;;;;;;;5031448;28;20028;-68
2023/06/24 11:26:31;;;;;;;;;;;;;;;;;;5031814;28;19925;-66
2023/06/24 11:28:57;;;;;;;;;;;;;;;;;;5031530;28;19925;-66
2023/06/24 11:31:25;;;;;;;;;;;;;;;;;;5031227;28;19936;-67
2023/06/24 11:33:52;;;;;;;;;;;;;;;;;;4969467;28;1772887;-67
2023/06/24 11:36:20;;;;;;;;;;;;;;;;;;5032131;28;19925;-67
2023/06/24 11:38:46;;;;;;;;;;;;;;;;;;5031861;28;19936;-67
2023/06/24 11:41:13;;;;;;;;;;;;;;;;;;5032243;28;20398;-66
2023/06/24 11:43:44;;;;;;;;;;;;;;;;;;5032613;28;19925;-69
2023/06/24 11:46:10;;;;;;;;;;;;;;;;;;5032656;28;19935;-69
2023/06/24 11:48:40;;;;;;;;;;;;;;;;;;5032321;28;20013;-69
2023/06/24 11:51:13;;;;;;;;;;;;;;;;;;5031829;28;20322;-68
2023/06/24 11:53:43;;;;;;;;;;;;;;;;;;5032197;28;19933;-67
2023/06/24 11:56:09;;;;;;;;;;;;;;;;;;5031389;28;20375;-69
2023/06/24 11:58:36;;;;;;;;;;;;;;;;;;5032034;28;20007;-69
2023/06/24 12:01:03;;;;;;;;;;;;;;;;;;5031781;28;19925;-69
2023/06/24 12:03:29;;;;;;;;;;;;;;;;;;5031785;28;19925;-69
2023/06/24 12:05:56;;;;;;;;;;;;;;;;;;5031583;28;19971;-69
2023/06/24 12:08:22;;;;;;;;;;;;;;;;;;5031961;28;19931;-69
2023/06/24 12:10:50;;;;;;;;;;;;;;;;;;5031697;28;19925;-69
2023/06/24 12:13:16;;;;;;;;;;;;;;;;;;5031973;28;20264;-69
2023/06/24 12:15:43;;;;;;;;;;;;;;;;;;5031681;28;19947;-69
2023/06/24 12:18:10;;;;;;;;;;;;;;;;;;5032005;28;20008;-69
2023/06/24 12:20:37;;;;;;;;;;;;;;;;;;5031805;28;19925;-67
2023/06/24 12:23:04;;;;;;;;;;;;;;;;;;5032025;28;19979;-68
2023/06/24 12:25:30;;;;;;;;;;;;;;;;;;5031658;28;19929;-68
2023/06/24 12:27:59;;;;;;;;;;;;;;;;;;5031351;28;20032;-68
2023/06/24 12:30:25;;;;;;;;;;;;;;;;;;5031070;28;19925;-68
2023/06/24 12:32:52;;;;;;;;;;;;;;;;;;5030470;28;19925;-68
2023/06/24 12:35:18;;;;;;;;;;;;;;;;;;5031559;28;20276;-68
2023/06/24 12:37:45;;;;;;;;;;;;;;;;;;5030929;28;19929;-68
2023/06/24 12:40:12;;;;;;;;;;;;;;;;;;5031077;28;19931;-68
2023/06/24 12:42:38;;;;;;;;;;;;;;;;;;5030941;28;20394;-68
2023/06/24 12:45:07;;;;;;;;;;;;;;;;;;5031214;28;19951;-68
2023/06/24 12:47:33;;;;;;;;;;;;;;;;;;5030459;28;19968;-68
2023/06/24 12:49:59;;;;;;;;;;;;;;;;;;5031698;28;20310;-69
2023/06/24 12:52:26;;;;;;;;;;;;;;;;;;5031102;28;19959;-68
2023/06/24 12:54:52;;;;;;;;;;;;;;;;;;5031086;28;19964;-68
2023/06/24 12:57:18;;;;;;;;;;;;;;;;;;5031190;28;19925;-68
2023/06/24 12:59:45;;;;;;;;;;;;;;;;;;5030814;28;19929;-68
2023/06/24 13:02:13;;;;;;;;;;;;;;;;;;5030765;28;19929;-68
2023/06/24 13:04:39;;;;;;;;;;;;;;;;;;5030557;28;19925;-69
2023/06/24 13:07:07;;;;;;;;;;;;;;;;;;5031117;28;20293;-69
2023/06/24 13:09:33;;;;;;;;;;;;;;;;;;5030584;28;19936;-69
2023/06/24 13:11:59;;;;;;;;;;;;;;;;;;5030881;28;19929;-69
2023/06/24 13:14:27;;;;;;;;;;;;;;;;;;5030317;28;20286;-69
2023/06/24 13:16:54;;;;;;;;;;;;;;;;;;5030752;28;19940;-69
2023/06/24 13:19:22;;;;;;;;;;;;;;;;;;5030894;28;20275;-69
2023/06/24 13:21:48;;;;;;;;;;;;;;;;;;5030809;28;19925;-69
2023/06/24 13:24:14;;;;;;;;;;;;;;;;;;5030107;28;19929;-69
2023/06/24 13:26:41;;;;;;;;;;;;;;;;;;5031363;28;20264;-69
2023/06/24 13:29:08;;;;;;;;;;;;;;;;;;5030432;28;20303;-69
2023/06/24 13:31:34;;;;;;;;;;;;;;;;;;5030794;28;19932;-69
2023/06/24 13:34:01;;;;;;;;;;;;;;;;;;5030788;28;20439;-69
2023/06/24 13:36:31;;;;;;;;;;;;;;;;;;5030352;28;19925;-69
2023/06/24 13:38:57;;;;;;;;;;;;;;;;;;5030973;28;20004;-69
2023/06/24 13:41:24;;;;;;;;;;;;;;;;;;5031291;28;20432;-69
2023/06/24 13:43:50;;;;;;;;;;;;;;;;;;5034578;28;19928;-69
2023/06/24 13:46:17;;;;;;;;;;;;;;;;;;5034202;28;19925;-69
2023/06/24 13:48:43;;;;;;;;;;;;;;;;;;5034762;28;19925;-69
2023/06/24 13:51:09;;;;;;;;;;;;;;;;;;5034023;28;19925;-69
2023/06/24 13:53:37;;;;;;;;;;;;;;;;;;5034516;28;20003;-69
2023/06/24 13:56:04;;;;;;;;;;;;;;;;;;5033720;28;19929;-69
2023/06/24 13:58:30;;;;;;;;;;;;;;;;;;5034531;28;20290;-69
2023/06/24 14:00:56;;;;;;;;;;;;;;;;;;5033907;28;19932;-69
2023/06/24 14:03:23;;;;;;;;;;;;;;;;;;5034074;28;19925;-69
2023/06/24 14:05:49;;;;;;;;;;;;;;;;;;5033821;28;19925;-69
2023/06/24 14:08:16;;;;;;;;;;;;;;;;;;5034072;28;20197;-69
2023/06/24 14:10:43;;;;;;;;;;;;;;;;;;5034014;28;20070;-69
2023/06/24 14:13:10;;;;;;;;;;;;;;;;;;5033526;28;19925;-70
2023/06/24 14:15:36;;;;;;;;;;;;;;;;;;5033996;28;19925;-69
2023/06/24 14:18:03;;;;;;;;;;;;;;;;;;5033286;28;19925;-69
2023/06/24 14:20:29;;;;;;;;;;;;;;;;;;5033949;28;19932;-69
2023/06/24 14:22:55;;;;;;;;;;;;;;;;;;5033412;28;19929;-69
2023/06/24 14:25:22;;;;;;;;;;;;;;;;;;5034249;28;19925;-69
2023/06/24 14:27:50;;;;;;;;;;;;;;;;;;5033870;28;19925;-69
2023/06/24 14:30:16;;;;;;;;;;;;;;;;;;5033518;28;19931;-69
2023/06/24 14:32:43;;;;;;;;;;;;;;;;;;5033887;28;19925;-69
2023/06/24 14:35:09;;;;;;;;;;;;;;;;;;5033705;28;19925;-69
2023/06/24 14:37:36;;;;;;;;;;;;;;;;;;5033218;28;19933;-69
2023/06/24 14:40:02;;;;;;;;;;;;;;;;;;5033586;28;20389;-69
2023/06/24 14:42:28;;;;;;;;;;;;;;;;;;5033551;28;19929;-69
2023/06/24 14:44:57;;;;;;;;;;;;;;;;;;5033320;28;20350;-69
2023/06/24 14:47:23;;;;;;;;;;;;;;;;;;5033605;28;19932;-69
2023/06/24 14:49:50;;;;;;;;;;;;;;;;;;5033232;28;19947;-69
2023/06/24 14:52:16;;;;;;;;;;;;;;;;;;5033641;28;20358;-69
2023/06/24 14:54:43;;;;;;;;;;;;;;;;;;5033067;28;19925;-69
2023/06/24 14:57:09;;;;;;;;;;;;;;;;;;5033829;28;20373;-69
2023/06/24 14:59:36;;;;;;;;;;;;;;;;;;5032448;28;19933;-69
2023/06/24 15:02:04;;;;;;;;;;;;;;;;;;5033329;28;20015;-69
2023/06/24 15:04:30;;;;;;;;;;;;;;;;;;5032473;28;19936;-70
2023/06/24 15:06:56;;;;;;;;;;;;;;;;;;5032824;28;20321;-69
2023/06/24 15:09:23;;;;;;;;;;;;;;;;;;5032844;28;19931;-69
2023/06/24 15:11:50;;;;;;;;;;;;;;;;;;5033002;28;19931;-69
2023/06/24 15:14:16;;;;;;;;;;;;;;;;;;5033351;28;19925;-69
2023/06/24 15:16:42;;;;;;;;;;;;;;;;;;5032987;28;19925;-69
2023/06/24 15:19:10;;;;;;;;;;;;;;;;;;5033508;28;19932;-68
2023/06/24 15:21:37;;;;;;;;;;;;;;;;;;5032960;28;19932;-68
2023/06/24 15:24:03;;;;;;;;;;;;;;;;;;5033396;28;19948;-68
2023/06/24 15:26:30;;;;;;;;;;;;;;;;;;5032592;28;19947;-68
2023/06/24 15:28:56;;;;;;;;;;;;;;;;;;5032835;28;19925;-68
2023/06/24 15:31:23;;;;;;;;;;;;;;;;;;5032674;28;19925;-68
2023/06/24 15:33:49;;;;;;;;;;;;;;;;;;5032109;22;20413;-69
2023/06/24 15:36:17;;;;;;;;;;;;;;;;;;5011822;28;19925;-69
2023/06/24 15:38:43;;;;;;;;;;;;;;;;;;5012974;28;19926;-69
2023/06/24 15:41:10;;;;;;;;;;;;;;;;;;5011738;28;20413;-69
2023/06/24 15:43:36;;;;;;;;;;;;;;;;;;5012331;28;19952;-69
2023/06/24 15:46:02;;;;;;;;;;;;;;;;;;5011890;28;20391;-69
2023/06/24 15:48:29;;;;;;;;;;;;;;;;;;5011924;28;19932;-69
2023/06/24 15:50:56;;;;;;;;;;;;;;;;;;5012093;28;19984;-69
2023/06/24 15:53:24;;;;;;;;;;;;;;;;;;5012072;28;20394;-69
2023/06/24 15:55:50;;;;;;;;;;;;;;;;;;5012350;28;19926;-69
2023/06/24 15:58:17;;;;;;;;;;;;;;;;;;5011504;28;20217;-69
2023/06/24 16:00:43;;;;;;;;;;;;;;;;;;5011614;28;19926;-69
2023/06/24 16:03:10;;;;;;;;;;;;;;;;;;5011114;28;20243;-69
2023/06/24 16:05:36;;;;;;;;;;;;;;;;;;5011505;28;20208;-69
2023/06/24 16:08:03;;;;;;;;;;;;;;;;;;5011747;28;20008;-69
2023/06/24 16:10:31;;;;;;;;;;;;;;;;;;5011349;28;19932;-69
2023/06/24 16:12:57;;;;;;;;;;;;;;;;;;5011294;28;19932;-70
2023/06/24 16:15:24;;;;;;;;;;;;;;;;;;5011744;28;20340;-71
2023/06/24 16:17:50;;;;;;;;;;;;;;;;;;5010817;28;19925;-70
2023/06/24 16:20:17;;;;;;;;;;;;;;;;;;5011615;28;19931;-69
2023/06/24 16:22:43;;;;;;;;;;;;;;;;;;5011210;28;20379;-68
2023/06/24 16:25:10;;;;;;;;;;;;;;;;;;5011755;28;19925;-69
2023/06/24 16:27:37;;;;;;;;;;;;;;;;;;5011551;28;19925;-69
2023/06/24 16:30:04;;;;;;;;;;;;;;;;;;5010830;28;20429;-69
2023/06/24 16:32:31;;;;;;;;;;;;;;;;;;5011087;28;19926;-69
2023/06/24 16:34:57;;;;;;;;;;;;;;;;;;5011190;28;19977;-69
2023/06/24 16:37:23;;;;;;;;;;;;;;;;;;5011374;28;19972;-69
2023/06/24 16:39:50;;;;;;;;;;;;;;;;;;5010592;28;19976;-69
2023/06/24 16:42:16;;;;;;;;;;;;;;;;;;5011333;28;19926;-69
2023/06/24 16:44:46;;;;;;;;;;;;;;;;;;5011166;28;20005;-70
2023/06/24 16:47:13;;;;;;;;;;;;;;;;;;5011105;28;19929;-69
2023/06/24 16:49:39;;;;;;;;;;;;;;;;;;5010737;28;20398;-69